Time;durP1;ratioP1;P1;durP2;ratioP2;P2;SDS_P1;SDS_P2;PMS_P1;PMS_P2;Temp;Humidity;BMP_temperature;BMP_pressure;BME280_temperature;BME280_humidity;BME280_pressure;Samples;Min_cycle;Max_cycle;Signal;HPM_P1;HPM_P2
2021/06/04 00:02:03;;;;;;;17.63;15.73;;;20.00;99.90;;;;;;5950541;22;20151;-68
2021/06/04 00:04:28;;;;;;;17.37;15.60;;;20.00;99.90;;;;;;5908983;22;20474;-67
2021/06/04 00:06:54;;;;;;;16.27;14.73;;;19.90;99.90;;;;;;5922766;22;20393;-66
2021/06/04 00:09:20;;;;;;;16.23;14.73;;;19.90;99.90;;;;;;5922439;22;20182;-66
2021/06/04 00:11:51;;;;;;;18.30;16.50;;;20.00;99.90;;;;;;5967217;22;20623;-66
2021/06/04 00:14:22;;;;;;;17.27;15.50;;;20.10;99.90;;;;;;6002106;22;20381;-66
2021/06/04 00:16:54;;;;;;;20.30;18.30;;;20.10;99.90;;;;;;6001018;22;20369;-65
2021/06/04 00:19:23;;;;;;;19.17;17.37;;;20.20;99.90;;;;;;5955724;22;20798;-66
2021/06/04 00:21:56;;;;;;;18.13;16.30;;;20.20;99.90;;;;;;5971416;22;20958;-66
2021/06/04 00:24:22;;;;;;;17.90;16.27;;;20.10;99.90;;;;;;5947202;22;20389;-66
2021/06/04 00:26:50;;;;;;;20.30;18.10;;;20.00;99.90;;;;;;5940645;22;20404;-66
2021/06/04 00:29:16;;;;;;;19.73;17.87;;;20.00;99.90;;;;;;5982653;22;20468;-66
2021/06/04 00:31:46;;;;;;;19.70;16.83;;;20.10;99.90;;;;;;5986522;22;20385;-68
2021/06/04 00:34:13;;;;;;;21.73;15.93;;;20.10;99.90;;;;;;5941234;22;20926;-66
2021/06/04 00:36:40;;;;;;;19.83;17.73;;;20.10;99.90;;;;;;5947830;22;20813;-66
2021/06/04 00:39:09;;;;;;;19.30;17.40;;;20.10;99.90;;;;;;5970213;22;20413;-66
2021/06/04 00:41:39;;;;;;;19.20;17.33;;;20.10;99.90;;;;;;5948298;22;20454;-66
2021/06/04 00:44:05;;;;;;;21.80;19.60;;;19.90;99.90;;;;;;5991458;22;20751;-66
2021/06/04 00:46:32;;;;;;;22.23;20.03;;;19.80;99.90;;;;;;5955214;22;20845;-66
2021/06/04 00:48:58;;;;;;;21.47;19.17;;;19.90;99.90;;;;;;5958550;22;20397;-68
2021/06/04 00:51:46;;;;;;;24.10;21.60;;;19.90;99.90;;;;;;5997005;22;20381;-66
2021/06/04 00:54:12;;;;;;;22.70;20.43;;;19.90;99.90;;;;;;5963964;22;20536;-68
2021/06/04 00:56:39;;;;;;;21.13;19.00;;;19.80;99.90;;;;;;5940447;22;20936;-68
2021/06/04 00:59:07;;;;;;;23.43;21.20;;;19.80;99.90;;;;;;5911105;22;20835;-68
2021/06/04 01:01:35;;;;;;;21.30;19.20;;;19.80;99.90;;;;;;5935301;22;20404;-66
2021/06/04 01:04:10;;;;;;;21.73;19.57;;;19.80;99.90;;;;;;5920974;22;20397;-68
2021/06/04 01:07:10;;;;;;;21.47;19.23;;;19.90;99.90;;;;;;5974727;22;20460;-68
2021/06/04 01:10:05;;;;;;;23.13;20.40;;;20.00;99.90;;;;;;5927507;22;21218;-66
2021/06/04 01:12:40;;;;;;;23.80;21.20;;;20.00;99.90;;;;;;5905403;22;20385;-66
2021/06/04 01:15:46;;;;;;;23.67;21.07;;;20.00;99.90;;;;;;5941533;22;20384;-66
2021/06/04 01:18:21;;;;;;;23.87;21.40;;;20.00;99.90;;;;;;5941118;22;20397;-66
2021/06/04 01:20:57;;;;;;;25.03;20.70;;;20.10;99.90;;;;;;5977154;22;21220;-66
2021/06/04 01:24:01;;;;;;;23.70;21.30;;;20.10;99.90;;;;;;5982246;22;20689;-66
2021/06/04 01:26:36;;;;;;;24.23;21.63;;;20.10;99.90;;;;;;5940571;22;20389;-67
2021/06/04 01:29:08;;;;;;;24.43;21.90;;;20.10;99.90;;;;;;5979029;22;20707;-66
2021/06/04 01:31:42;;;;;;;23.60;20.97;;;20.00;99.90;;;;;;5978905;22;20457;-66
2021/06/04 01:34:15;;;;;;;22.77;20.47;;;19.90;99.90;;;;;;5913602;22;20395;-67
2021/06/04 01:36:48;;;;;;;23.67;21.20;;;20.00;99.90;;;;;;5939075;22;20409;-66
2021/06/04 01:39:36;;;;;;;23.50;21.20;;;20.10;99.90;;;;;;5942542;22;20468;-66
2021/06/04 01:42:05;;;;;;;24.73;22.23;;;20.10;99.90;;;;;;5962077;22;20833;-66
2021/06/04 01:44:51;;;;;;;24.43;21.13;;;20.10;99.90;;;;;;5969383;22;20417;-66
2021/06/04 01:47:32;;;;;;;25.60;22.77;;;20.10;99.90;;;;;;5893145;22;20605;-66
2021/06/04 01:50:01;;;;;;;24.40;21.80;;;20.20;99.90;;;;;;5950875;22;20723;-66
2021/06/04 01:52:34;;;;;;;24.40;21.80;;;20.20;99.90;;;;;;5951142;22;20844;-66
2021/06/04 01:55:03;;;;;;;23.97;21.57;;;20.20;99.90;;;;;;5925814;22;20468;-66
2021/06/04 01:57:39;;;;;;;23.47;21.17;;;20.10;99.90;;;;;;5948127;22;20462;-66
2021/06/04 02:00:19;;;;;;;23.57;21.17;;;20.00;99.90;;;;;;5908765;22;20879;-66
2021/06/04 02:02:47;;;;;;;23.63;21.07;;;20.10;99.90;;;;;;5906249;22;20471;-66
2021/06/04 02:05:17;;;;;;;24.70;21.67;;;20.10;99.90;;;;;;5920178;22;20931;-66
2021/06/04 02:07:43;;;;;;;21.53;19.33;;;20.10;99.90;;;;;;5942295;22;20449;-68
2021/06/04 02:10:16;;;;;;;27.00;19.40;;;20.10;99.90;;;;;;5933323;22;20987;-66
2021/06/04 02:12:42;;;;;;;20.03;18.10;;;20.20;99.90;;;;;;5956780;22;20150;-66
2021/06/04 02:15:13;;;;;;;21.63;19.53;;;20.30;99.90;;;;;;6002539;22;20777;-66
2021/06/04 02:18:03;;;;;;;21.17;19.07;;;20.30;99.90;;;;;;5959295;22;20389;-66
2021/06/04 02:20:41;;;;;;;23.30;18.60;;;20.30;99.90;;;;;;5956074;22;20982;-66
2021/06/04 02:23:18;;;;;;;21.10;18.80;;;20.20;99.90;;;;;;5996489;22;20381;-68
2021/06/04 02:25:52;;;;;;;22.47;20.20;;;20.10;99.90;;;;;;5938358;22;20803;-66
2021/06/04 02:28:37;;;;;;;21.50;19.30;;;19.80;99.90;;;;;;5981406;22;21170;-66
2021/06/04 02:31:18;;;;;;;21.37;19.33;;;19.70;99.90;;;;;;5946976;22;20431;-67
2021/06/04 02:33:55;;;;;;;22.30;20.10;;;19.50;99.90;;;;;;5942006;22;20442;-66
2021/06/04 02:36:29;;;;;;;21.20;19.20;;;19.40;99.90;;;;;;5939317;22;20389;-67
2021/06/04 02:39:03;;;;;;;21.50;19.30;;;19.40;99.90;;;;;;5961761;22;20365;-66
2021/06/04 02:41:34;;;;;;;22.03;19.80;;;19.30;99.90;;;;;;5928546;22;20910;-66
2021/06/04 02:44:11;;;;;;;23.23;20.20;;;19.20;99.90;;;;;;5950392;22;20816;-66
2021/06/04 02:46:48;;;;;;;20.63;18.50;;;19.20;99.90;;;;;;5991190;22;20757;-66
2021/06/04 02:49:16;;;;;;;21.77;19.47;;;19.20;99.90;;;;;;5938672;22;20897;-66
2021/06/04 02:52:14;;;;;;;23.50;21.00;;;19.30;99.90;;;;;;5946142;22;21109;-66
2021/06/04 02:54:43;;;;;;;23.80;20.37;;;19.20;99.90;;;;;;5977747;22;20369;-66
2021/06/04 02:57:12;;;;;;;23.77;21.27;;;19.10;99.90;;;;;;5938019;22;20393;-66
2021/06/04 02:59:44;;;;;;;23.83;21.33;;;19.00;99.90;;;;;;5946494;22;20389;-66
2021/06/04 03:02:12;;;;;;;23.27;20.77;;;19.00;99.90;;;;;;5936436;22;20782;-66
2021/06/04 03:04:43;;;;;;;22.20;19.90;;;18.90;99.90;;;;;;5977798;22;20404;-65
2021/06/04 03:07:17;;;;;;;23.87;21.37;;;18.90;99.90;;;;;;5983046;22;20871;-65
2021/06/04 03:09:44;;;;;;;26.90;24.00;;;18.90;99.90;;;;;;5940485;22;20435;-65
2021/06/04 03:12:23;;;;;;;29.97;26.90;;;18.80;99.90;;;;;;5944180;22;21019;-66
2021/06/04 03:14:51;;;;;;;28.17;25.20;;;18.70;99.90;;;;;;5946524;22;20811;-65
2021/06/04 03:17:19;;;;;;;27.80;24.83;;;18.70;99.90;;;;;;5934261;22;20812;-65
2021/06/04 03:19:45;;;;;;;29.27;26.23;;;18.70;99.90;;;;;;5972253;22;20391;-65
2021/06/04 03:22:24;;;;;;;28.47;25.50;;;18.70;99.90;;;;;;5944790;22;20389;-65
2021/06/04 03:24:49;;;;;;;27.50;24.50;;;18.60;99.90;;;;;;5985455;22;20186;-65
2021/06/04 03:27:18;;;;;;;26.67;23.87;;;18.50;99.90;;;;;;5943864;22;20716;-65
2021/06/04 03:29:44;;;;;;;24.73;22.10;;;18.50;99.90;;;;;;5983107;22;20541;-65
2021/06/04 03:32:12;;;;;;;25.03;22.37;;;18.70;99.90;;;;;;5989923;22;20417;-66
2021/06/04 03:34:40;;;;;;;24.30;21.67;;;18.70;99.90;;;;;;5949530;22;20397;-66
2021/06/04 03:37:09;;;;;;;23.57;21.13;;;18.70;99.90;;;;;;5974055;22;20383;-66
2021/06/04 03:39:38;;;;;;;23.80;21.17;;;18.70;99.90;;;;;;5977342;22;20980;-64
2021/06/04 03:42:08;;;;;;;23.97;20.63;;;18.80;99.90;;;;;;5940299;22;20389;-64
2021/06/04 03:44:36;;;;;;;24.17;21.67;;;18.70;99.90;;;;;;5978939;22;20830;-64
2021/06/04 03:47:03;;;;;;;25.53;22.77;;;18.60;99.90;;;;;;5972431;22;21496;-64
2021/06/04 03:49:29;;;;;;;25.90;23.10;;;18.80;99.90;;;;;;5941132;22;20453;-64
2021/06/04 03:51:57;;;;;;;23.60;21.10;;;19.00;99.90;;;;;;5936915;22;20807;-64
2021/06/04 03:54:27;;;;;;;23.93;21.50;;;19.00;99.90;;;;;;5920743;22;20409;-64
2021/06/04 03:56:58;;;;;;;24.60;22.00;;;19.20;99.90;;;;;;5951894;22;20731;-64
2021/06/04 03:59:24;;;;;;;23.60;21.20;;;19.80;99.90;;;;;;5926619;22;21194;-64
2021/06/04 04:01:58;;;;;;;21.67;19.67;;;20.80;99.90;;;;;;5957035;22;20820;-64
2021/06/04 04:04:24;;;;;;;21.37;19.33;;;22.10;99.90;;;;;;5932305;22;20390;-64
2021/06/04 04:06:51;;;;;;;20.90;18.67;;;23.20;1.00;;;;;;5980947;22;21065;-64
2021/06/04 04:09:17;;;;;;;18.43;16.63;;;24.20;64.90;;;;;;5980356;22;20428;-64
2021/06/04 04:11:47;;;;;;;20.43;18.40;;;24.60;99.90;;;;;;5950925;22;20400;-64
2021/06/04 04:14:13;;;;;;;18.33;16.20;;;25.40;1.00;;;;;;5949630;22;20845;-64
2021/06/04 04:16:39;;;;;;;17.40;15.63;;;26.40;99.90;;;;;;5990761;22;20808;-64
2021/06/04 04:19:05;;;;;;;17.90;16.10;;;27.30;1.00;;;;;;5933047;22;20472;-64
2021/06/04 04:21:31;;;;;;;15.20;13.80;;;28.00;1.00;;;;;;5945546;22;20876;-64
2021/06/04 04:24:00;;;;;;;16.10;14.60;;;28.60;99.90;;;;;;5979396;22;20821;-64
2021/06/04 04:26:30;;;;;;;16.30;14.90;;;29.40;99.90;;;;;;5975716;22;20377;-64
2021/06/04 04:28:56;;;;;;;16.00;14.30;;;29.50;12.20;;;;;;5979452;22;20373;-64
2021/06/04 04:31:25;;;;;;;14.30;13.10;;;29.60;14.50;;;;;;5939239;22;20421;-64
2021/06/04 04:33:52;;;;;;;14.40;13.10;;;29.00;3.10;;;;;;5985503;22;20596;-64
2021/06/04 04:36:20;;;;;;;13.53;12.43;;;29.10;2.00;;;;;;5940069;22;20823;-64
2021/06/04 04:38:46;;;;;;;15.23;12.83;;;29.90;1.00;;;;;;5937381;22;20393;-64
2021/06/04 04:41:13;;;;;;;13.50;12.40;;;30.80;1.00;;;;;;5948123;22;20835;-64
2021/06/04 04:43:41;;;;;;;14.00;12.80;;;30.50;1.00;;;;;;5939792;22;20517;-64
2021/06/04 04:46:09;;;;;;;13.70;12.50;;;30.90;1.00;;;;;;5947441;22;20404;-64
2021/06/04 04:48:35;;;;;;;11.80;10.90;;;31.70;1.00;;;;;;5982715;22;20396;-64
2021/06/04 04:51:02;;;;;;;13.03;11.90;;;31.40;1.00;;;;;;5973554;22;20421;-64
2021/06/04 04:53:27;;;;;;;12.13;11.00;;;30.90;1.00;;;;;;5933589;22;20450;-64
2021/06/04 04:55:53;;;;;;;12.63;11.57;;;30.90;1.00;;;;;;5910578;22;20690;-64
2021/06/04 04:58:20;;;;;;;13.97;12.70;;;30.00;1.00;;;;;;5931508;22;20404;-64
2021/06/04 05:00:46;;;;;;;12.17;11.07;;;29.00;1.00;;;;;;5931707;22;20562;-64
2021/06/04 05:03:14;;;;;;;12.10;11.00;;;29.30;1.00;;;;;;5944658;22;21296;-64
2021/06/04 05:05:39;;;;;;;13.60;12.30;;;29.10;1.00;;;;;;5966723;22;20461;-64
2021/06/04 05:08:06;;;;;;;14.73;13.33;;;29.00;1.00;;;;;;5930666;22;20820;-64
2021/06/04 05:10:33;;;;;;;13.73;12.43;;;29.70;1.00;;;;;;5934689;22;20187;-64
2021/06/04 05:12:59;;;;;;;13.40;11.27;;;30.60;1.00;;;;;;5946923;22;20885;-64
2021/06/04 05:15:29;;;;;;;12.90;11.60;;;31.20;1.00;;;;;;5929046;22;20822;-64
2021/06/04 05:17:55;;;;;;;13.60;10.43;;;31.30;1.00;;;;;;5939723;22;20847;-64
2021/06/04 05:20:22;;;;;;;12.33;11.13;;;30.30;1.00;;;;;;5979211;22;20377;-64
2021/06/04 05:22:48;;;;;;;12.57;11.47;;;31.00;1.00;;;;;;5982727;22;20201;-64
2021/06/04 05:25:21;;;;;;;10.40;9.50;;;32.20;1.00;;;;;;5945267;22;20804;-64
2021/06/04 05:27:47;;;;;;;10.70;9.77;;;32.20;1.00;;;;;;5923696;22;20412;-64
2021/06/04 05:30:20;;;;;;;10.30;9.40;;;32.20;1.00;;;;;;5968417;22;20573;-64
2021/06/04 05:32:46;;;;;;;9.30;8.60;;;32.10;1.00;;;;;;5977602;22;20810;-64
2021/06/04 05:35:12;;;;;;;10.00;9.10;;;33.10;1.00;;;;;;5939673;22;20841;-64
2021/06/04 05:37:38;;;;;;;9.73;9.03;;;32.10;1.00;;;;;;5926717;22;20660;-64
2021/06/04 05:40:29;;;;;;;11.37;9.97;;;31.40;1.00;;;;;;5943204;22;20925;-64
2021/06/04 05:42:56;;;;;;;10.50;9.60;;;31.50;1.00;;;;;;5973106;22;20389;-64
2021/06/04 05:45:25;;;;;;;11.00;9.93;;;31.90;1.00;;;;;;5984675;22;20848;-64
2021/06/04 05:47:51;;;;;;;11.37;10.37;;;31.70;1.00;;;;;;5942749;22;21170;-64
2021/06/04 05:50:22;;;;;;;12.47;11.27;;;31.00;1.00;;;;;;5972664;22;20435;-64
2021/06/04 05:52:49;;;;;;;10.40;9.40;;;30.50;1.00;;;;;;5939122;22;20901;-64
2021/06/04 05:55:18;;;;;;;9.53;8.73;;;31.70;1.00;;;;;;5932979;22;20802;-64
2021/06/04 05:57:43;;;;;;;9.90;9.00;;;32.20;1.00;;;;;;5955894;22;20409;-64
2021/06/04 06:00:35;;;;;;;10.23;9.33;;;32.70;1.00;;;;;;5933102;22;21234;-64
2021/06/04 06:03:01;;;;;;;9.37;8.67;;;31.20;1.00;;;;;;5944957;22;20232;-64
2021/06/04 06:05:27;;;;;;;11.10;8.93;;;32.10;1.00;;;;;;5928326;22;21012;-64
2021/06/04 06:07:53;;;;;;;10.20;9.30;;;33.20;1.00;;;;;;5969941;22;20803;-64
2021/06/04 06:10:21;;;;;;;9.93;9.03;;;32.40;1.00;;;;;;5932108;22;21182;-65
2021/06/04 06:12:47;;;;;;;10.60;9.60;;;32.60;1.00;;;;;;5927573;22;20472;-64
2021/06/04 06:15:13;;;;;;;10.67;9.80;;;32.60;1.00;;;;;;5919087;22;20497;-64
2021/06/04 06:17:38;;;;;;;10.30;9.40;;;32.70;1.00;;;;;;5953919;22;20373;-64
2021/06/04 06:20:11;;;;;;;10.33;9.53;;;33.00;1.00;;;;;;5952432;22;20388;-64
2021/06/04 06:22:37;;;;;;;10.23;9.40;;;33.40;1.00;;;;;;5918047;22;20159;-64
2021/06/04 06:25:06;;;;;;;10.10;9.20;;;33.30;1.00;;;;;;5951044;22;20381;-65
2021/06/04 06:27:32;;;;;;;10.20;9.40;;;32.60;1.00;;;;;;5922431;22;20888;-64
2021/06/04 06:29:58;;;;;;;9.47;8.77;;;31.90;1.00;;;;;;5968112;22;20867;-64
2021/06/04 06:32:24;;;;;;;9.93;9.13;;;32.80;1.00;;;;;;5962012;22;20983;-64
2021/06/04 06:34:50;;;;;;;10.50;9.60;;;33.30;1.00;;;;;;5908429;22;20154;-64
2021/06/04 06:37:16;;;;;;;10.87;9.90;;;31.80;1.00;;;;;;5890807;22;20190;-64
2021/06/04 06:39:41;;;;;;;11.10;10.20;;;31.40;1.00;;;;;;5963165;22;20541;-65
2021/06/04 06:42:10;;;;;;;10.30;9.33;;;31.60;1.00;;;;;;5909111;22;20404;-65
2021/06/04 06:44:36;;;;;;;10.13;9.10;;;31.70;1.00;;;;;;5925999;22;20253;-65
2021/06/04 06:47:03;;;;;;;10.83;9.93;;;32.40;1.00;;;;;;5977415;22;20862;-65
2021/06/04 06:49:29;;;;;;;10.10;9.30;;;32.60;1.00;;;;;;5985032;22;20970;-65
2021/06/04 06:51:55;;;;;;;9.33;8.57;;;32.20;1.00;;;;;;5981228;22;20965;-65
2021/06/04 06:54:25;;;;;;;10.60;9.60;;;31.40;1.00;;;;;;5986352;22;20147;-65
2021/06/04 06:56:53;;;;;;;9.60;8.70;;;31.10;1.00;;;;;;5937373;22;20404;-65
2021/06/04 06:59:21;;;;;;;10.07;9.17;;;30.60;1.00;;;;;;5939559;22;20401;-65
2021/06/04 07:01:47;;;;;;;10.97;10.10;;;30.10;1.00;;;;;;5967209;22;20420;-65
2021/06/04 07:04:13;;;;;;;10.60;9.70;;;30.20;1.00;;;;;;5917583;22;20404;-65
2021/06/04 07:06:41;;;;;;;11.37;10.30;;;30.80;1.00;;;;;;5924637;22;20166;-65
2021/06/04 07:09:09;;;;;;;10.50;9.50;;;31.60;1.00;;;;;;5876767;22;20664;-63
2021/06/04 07:11:37;;;;;;;10.33;9.43;;;31.00;1.00;;;;;;5917597;22;20874;-65
2021/06/04 07:14:05;;;;;;;10.03;9.13;;;30.80;1.00;;;;;;5878644;22;20385;-66
2021/06/04 07:16:30;;;;;;;10.63;9.80;;;31.60;1.00;;;;;;5871908;22;20385;-64
2021/06/04 07:18:56;;;;;;;10.33;9.53;;;32.10;1.00;;;;;;5857680;22;20389;-63
2021/06/04 07:21:24;;;;;;;11.50;10.33;;;30.30;1.00;;;;;;5909708;22;20254;-64
2021/06/04 07:23:50;;;;;;;9.03;8.37;;;31.10;1.00;;;;;;5906862;22;20566;-66
2021/06/04 07:26:17;;;;;;;10.37;9.33;;;32.10;1.00;;;;;;5912014;22;20532;-66
2021/06/04 07:28:48;;;;;;;10.70;9.30;;;32.60;1.00;;;;;;5914476;22;20381;-72
2021/06/04 07:31:14;;;;;;;10.37;9.27;;;31.90;1.00;;;;;;5973779;22;20409;-71
2021/06/04 07:33:46;;;;;;;10.97;10.17;;;30.50;1.00;;;;;;5945486;22;20389;-72
2021/06/04 07:36:23;;;;;;;10.53;9.73;;;31.00;1.00;;;;;;5958524;22;20460;-72
2021/06/04 07:38:49;;;;;;;11.10;10.20;;;30.40;1.00;;;;;;5933468;22;20416;-72
2021/06/04 07:41:16;;;;;;;11.00;10.13;;;29.20;1.00;;;;;;5939023;22;20546;-73
2021/06/04 07:43:44;;;;;;;11.87;10.97;;;28.40;1.00;;;;;;5975909;22;20811;-72
2021/06/04 07:46:11;;;;;;;11.17;10.27;;;27.50;1.00;;;;;;5946767;22;21277;-72
2021/06/04 07:48:36;;;;;;;11.37;10.47;;;26.90;1.00;;;;;;5973911;22;20389;-69
2021/06/04 07:51:05;;;;;;;11.60;10.70;;;26.40;1.00;;;;;;5934529;22;20482;-71
2021/06/04 07:53:32;;;;;;;12.10;11.10;;;25.80;99.90;;;;;;5940480;22;20805;-70
2021/06/04 07:55:59;;;;;;;11.77;10.57;;;26.30;99.90;;;;;;5947975;22;21048;-68
2021/06/04 07:58:26;;;;;;;11.53;10.63;;;26.30;1.00;;;;;;5932772;22;20715;-70
2021/06/04 08:00:52;;;;;;;12.03;10.83;;;25.10;99.90;;;;;;5979515;22;20684;-67
2021/06/04 08:03:22;;;;;;;11.60;10.67;;;25.00;1.00;;;;;;5944175;22;20401;-67
2021/06/04 08:05:48;;;;;;;11.90;10.70;;;24.70;1.00;;;;;;5965341;22;20404;-67
2021/06/04 08:08:15;;;;;;;12.50;11.40;;;24.40;32.50;;;;;;5932480;22;20428;-69
2021/06/04 08:10:41;;;;;;;12.73;11.53;;;24.40;99.90;;;;;;5955177;22;20236;-68
2021/06/04 08:13:13;;;;;;;10.93;10.03;;;24.50;1.00;;;;;;5952991;22;21244;-69
2021/06/04 08:15:44;;;;;;;12.17;11.07;;;24.60;99.90;;;;;;5989493;22;20775;-67
2021/06/04 08:18:10;;;;;;;12.70;11.60;;;24.50;38.80;;;;;;5982254;22;20819;-68
2021/06/04 08:20:38;;;;;;;12.37;11.13;;;24.90;22.30;;;;;;5941331;22;20397;-67
2021/06/04 08:23:10;;;;;;;10.90;10.00;;;25.20;99.90;;;;;;5960264;22;21063;-68
2021/06/04 08:25:40;;;;;;;12.63;11.43;;;25.60;1.00;;;;;;5910348;22;20749;-68
2021/06/04 08:28:06;;;;;;;11.73;10.73;;;25.40;99.90;;;;;;5965562;22;20393;-69
2021/06/04 08:30:32;;;;;;;10.93;10.13;;;25.20;1.00;;;;;;5935450;22;20486;-70
2021/06/04 08:33:00;;;;;;;12.33;11.10;;;25.60;1.00;;;;;;5933769;22;20165;-69
2021/06/04 08:35:28;;;;;;;12.23;10.67;;;25.60;1.00;;;;;;5977653;22;20837;-68
2021/06/04 08:37:54;;;;;;;11.37;10.27;;;25.40;1.00;;;;;;5979246;22;20388;-69
2021/06/04 08:40:25;;;;;;;11.43;10.20;;;25.70;1.00;;;;;;5937756;22;20393;-68
2021/06/04 08:43:07;;;;;;;11.67;10.67;;;25.70;1.00;;;;;;5979652;22;20482;-69
2021/06/04 08:45:37;;;;;;;10.00;9.17;;;26.00;99.90;;;;;;5938373;22;20413;-69
2021/06/04 08:48:24;;;;;;;11.40;10.40;;;25.90;99.90;;;;;;5936438;22;20784;-68
2021/06/04 08:51:24;;;;;;;11.10;10.20;;;26.20;99.90;;;;;;5935903;22;21031;-69
2021/06/04 08:53:59;;;;;;;13.97;12.60;;;26.30;83.60;;;;;;5926234;22;20388;-66
2021/06/04 08:56:56;;;;;;;12.50;11.40;;;25.60;99.90;;;;;;5965378;22;21239;-69
2021/06/04 08:59:24;;;;;;;12.43;11.33;;;25.70;99.90;;;;;;5892449;22;20410;-69
2021/06/04 09:02:01;;;;;;;11.63;10.73;;;25.50;99.90;;;;;;5933400;22;20408;-66
2021/06/04 09:04:37;;;;;;;13.23;12.03;;;25.50;99.90;;;;;;5915215;22;20366;-67
2021/06/04 09:07:06;;;;;;;13.03;11.97;;;25.40;99.90;;;;;;5872407;22;21186;-67
2021/06/04 09:09:55;;;;;;;11.50;10.40;;;25.20;1.00;;;;;;5913040;22;20810;-70
2021/06/04 09:12:29;;;;;;;10.60;9.70;;;25.40;1.00;;;;;;5966225;22;20365;-70
2021/06/04 09:14:55;;;;;;;10.63;9.83;;;25.40;99.90;;;;;;5890310;22;20825;-68
2021/06/04 09:17:46;;;;;;;11.40;10.33;;;25.70;99.90;;;;;;5858092;22;20397;-68
2021/06/04 09:20:24;;;;;;;11.30;10.30;;;26.00;99.90;;;;;;5872529;22;20516;-71
2021/06/04 09:22:58;;;;;;;11.40;10.60;;;26.10;99.90;;;;;;5896052;22;20840;-69
2021/06/04 09:25:26;;;;;;;11.50;10.50;;;26.00;99.90;;;;;;5882236;22;21308;-69
2021/06/04 09:28:13;;;;;;;11.40;10.50;;;26.30;95.40;;;;;;5889414;22;20540;-69
2021/06/04 09:30:44;;;;;;;12.07;11.10;;;26.40;99.90;;;;;;5930502;22;20418;-66
2021/06/04 09:33:18;;;;;;;11.40;10.47;;;26.50;99.90;;;;;;5941041;22;20385;-66
2021/06/04 09:35:58;;;;;;;12.60;11.40;;;26.90;1.00;;;;;;5883063;22;20390;-64
2021/06/04 09:38:52;;;;;;;10.70;9.80;;;26.50;1.00;;;;;;5902138;22;20385;-65
2021/06/04 09:41:18;;;;;;;10.77;9.87;;;26.60;12.00;;;;;;5921926;22;20371;-65
2021/06/04 09:43:46;;;;;;;11.83;10.83;;;26.90;1.00;;;;;;5921746;22;20406;-64
2021/06/04 09:46:13;;;;;;;10.53;9.73;;;27.10;1.00;;;;;;5871189;22;20155;-66
2021/06/04 09:48:41;;;;;;;10.60;9.80;;;27.10;1.00;;;;;;5914884;22;20905;-65
2021/06/04 09:51:07;;;;;;;11.53;10.60;;;27.00;1.00;;;;;;5902791;22;20828;-65
2021/06/04 09:53:33;;;;;;;10.90;10.00;;;27.00;1.00;;;;;;5886527;22;20394;-65
2021/06/04 09:56:08;;;;;;;10.47;9.63;;;27.00;1.00;;;;;;5881753;22;20155;-64
2021/06/04 09:58:53;;;;;;;15.80;10.97;;;27.10;14.90;;;;;;5878072;22;20942;-64
2021/06/04 10:01:21;;;;;;;9.87;9.07;;;26.70;1.00;;;;;;5899030;22;20405;-64
2021/06/04 10:03:51;;;;;;;11.23;10.30;;;26.50;28.10;;;;;;5896993;22;20487;-64
2021/06/04 10:06:28;;;;;;;10.00;9.10;;;26.10;99.90;;;;;;5902236;22;20894;-64
2021/06/04 10:09:10;;;;;;;10.40;9.40;;;26.20;99.90;;;;;;5877972;22;21235;-64
2021/06/04 10:11:38;;;;;;;10.83;9.80;;;26.70;22.10;;;;;;5942464;22;21188;-64
2021/06/04 10:14:18;;;;;;;11.03;10.13;;;27.10;1.00;;;;;;5895358;22;20858;-64
2021/06/04 10:19:39;;;;;;;10.30;9.17;;;27.20;1.00;;;;;;5926328;22;20370;-64
2021/06/04 10:22:05;;;;;;;10.27;9.37;;;27.70;1.00;;;;;;5931365;22;20405;-65
2021/06/04 10:24:34;;;;;;;10.80;9.97;;;28.10;1.00;;;;;;5868915;22;20485;-67
2021/06/04 10:27:04;;;;;;;10.57;9.60;;;28.00;1.00;;;;;;5877553;22;20152;-67
2021/06/04 10:29:30;;;;;;;10.60;9.60;;;28.10;1.00;;;;;;5896174;22;20422;-64
2021/06/04 10:32:15;;;;;;;10.03;9.33;;;27.80;1.00;;;;;;5851048;22;20734;-64
2021/06/04 10:35:11;;;;;;;9.00;8.10;;;28.00;1.00;;;;;;5829809;22;20390;-64
2021/06/04 10:38:01;;;;;;;10.93;9.93;;;28.10;1.00;;;;;;5833353;22;20895;-64
2021/06/04 10:40:45;;;;;;;9.73;8.90;;;28.20;1.00;;;;;;5913266;22;20366;-64
2021/06/04 10:43:35;;;;;;;9.90;9.10;;;28.40;1.00;;;;;;5894698;22;20390;-64
2021/06/04 10:46:22;;;;;;;8.73;8.03;;;28.10;1.00;;;;;;5930823;22;20375;-64
2021/06/04 10:49:06;;;;;;;9.97;9.17;;;27.90;1.00;;;;;;5871168;22;20922;-67
2021/06/04 10:51:40;;;;;;;10.03;9.07;;;27.60;1.00;;;;;;5888974;22;20760;-67
2021/06/04 10:54:26;;;;;;;9.50;8.80;;;27.60;1.00;;;;;;5860663;22;20891;-67
2021/06/04 10:57:19;;;;;;;9.70;9.00;;;28.00;1.00;;;;;;5784162;22;20393;-68
2021/06/04 10:59:57;;;;;;;9.90;9.00;;;28.10;1.00;;;;;;5898490;22;20828;-65
2021/06/04 11:02:46;;;;;;;8.63;7.90;;;28.10;1.00;;;;;;5899008;22;20726;-67
2021/06/04 11:05:49;;;;;;;9.33;8.60;;;28.00;1.00;;;;;;5890310;22;20776;-69
2021/06/04 11:08:52;;;;;;;10.57;9.67;;;28.10;1.00;;;;;;5900798;22;21196;-67
2021/06/04 11:15:23;;;;;;;9.00;8.40;;;28.20;1.00;;;;;;5810012;23;20875;-67
2021/06/04 11:18:16;;;;;;;9.27;8.57;;;28.10;1.00;;;;;;5859492;23;20898;-68
2021/06/04 11:20:53;;;;;;;11.00;9.90;;;27.90;1.00;;;;;;5851837;23;20395;-68
2021/06/04 11:23:42;;;;;;;12.97;11.97;;;27.70;9.10;;;;;;5809715;23;20680;-66
2021/06/04 11:26:23;;;;;;;10.67;9.77;;;27.90;1.00;;;;;;5937812;23;20392;-66
2021/06/04 11:29:06;;;;;;;11.43;9.83;;;27.60;1.00;;;;;;5929052;23;20814;-65
2021/06/04 11:32:12;;;;;;;9.60;8.90;;;27.60;1.00;;;;;;5826713;23;21026;-66
2021/06/04 11:35:10;;;;;;;9.40;8.53;;;27.60;1.00;;;;;;5784224;23;20992;-65
2021/06/04 11:37:56;;;;;;;9.63;8.83;;;27.70;1.00;;;;;;5842527;23;20482;-63
2021/06/04 11:40:46;;;;;;;8.77;8.07;;;28.00;1.00;;;;;;5823202;23;20818;-68
2021/06/04 11:43:15;;;;;;;9.17;8.47;;;27.80;1.00;;;;;;5827833;23;20402;-66
2021/06/04 11:45:44;;;;;;;9.10;8.40;;;27.80;1.00;;;;;;5833663;23;21139;-66
2021/06/04 11:48:28;;;;;;;9.27;8.47;;;27.90;1.00;;;;;;5858866;23;21230;-66
2021/06/04 11:51:20;;;;;;;9.30;8.60;;;28.50;1.00;;;;;;5770620;23;20892;-65
2021/06/04 11:53:48;;;;;;;9.30;8.53;;;29.00;1.00;;;;;;5805468;23;20824;-65
2021/06/04 11:56:51;;;;;;;10.20;9.40;;;28.80;1.00;;;;;;5811104;23;20784;-66
2021/06/04 11:59:52;;;;;;;10.50;9.60;;;28.80;1.00;;;;;;5808418;23;20395;-66
2021/06/04 12:02:48;;;;;;;10.33;9.43;;;28.50;1.00;;;;;;5809569;23;20395;-65
2021/06/04 12:05:17;;;;;;;10.07;9.37;;;28.40;1.00;;;;;;5806387;23;20398;-65
2021/06/04 12:08:14;;;;;;;10.73;9.93;;;27.80;1.00;;;;;;5795784;23;21174;-66
2021/06/04 12:10:49;;;;;;;10.20;9.40;;;27.80;1.00;;;;;;5798035;23;21308;-66
2021/06/04 12:13:33;;;;;;;10.00;9.30;;;27.50;1.00;;;;;;5793652;23;20747;-66
2021/06/04 12:16:35;;;;;;;10.63;9.60;;;27.20;1.00;;;;;;5767638;23;20753;-68
2021/06/04 12:23:09;;;;;;;10.50;9.57;;;28.00;1.00;;;;;;5824582;23;20730;-71
2021/06/04 12:25:49;;;;;;;10.83;9.97;;;28.00;1.00;;;;;;5713001;23;20484;-67
2021/06/04 12:28:18;;;;;;;10.17;9.47;;;27.80;1.00;;;;;;5821501;23;20395;-66
2021/06/04 12:30:54;;;;;;;9.93;9.13;;;28.00;1.00;;;;;;5851618;23;20416;-66
2021/06/04 12:33:38;;;;;;;10.80;9.90;;;28.30;1.00;;;;;;5871003;23;20887;-66
2021/06/04 12:36:30;;;;;;;11.27;10.07;;;28.70;1.00;;;;;;5828101;23;20400;-65
2021/06/04 12:39:28;;;;;;;9.67;8.90;;;28.70;1.00;;;;;;5800759;23;20876;-65
2021/06/04 12:42:06;;;;;;;10.87;9.93;;;29.20;1.00;;;;;;5826297;23;20367;-64
2021/06/04 12:44:33;;;;;;;11.77;10.77;;;29.10;1.00;;;;;;5778406;23;20846;-64
2021/06/04 12:46:59;;;;;;;11.40;10.40;;;28.70;1.00;;;;;;5755447;23;21042;-65
2021/06/04 12:49:25;;;;;;;13.30;11.30;;;27.80;1.00;;;;;;5769492;23;20388;-66
2021/06/04 12:51:52;;;;;;;10.30;9.40;;;27.00;1.00;;;;;;5800439;23;20411;-65
2021/06/04 12:54:28;;;;;;;12.40;11.20;;;27.00;39.20;;;;;;5794351;23;20674;-66
2021/06/04 12:56:59;;;;;;;11.80;10.90;;;27.40;1.00;;;;;;5802463;23;20403;-67
2021/06/04 12:59:27;;;;;;;12.33;11.33;;;27.50;1.00;;;;;;5787375;23;20776;-68
2021/06/04 13:02:05;;;;;;;11.73;10.77;;;27.60;1.00;;;;;;5860853;23;20818;-71
2021/06/04 13:04:35;;;;;;;12.23;11.33;;;27.70;1.00;;;;;;5858979;23;20729;-69
2021/06/04 13:07:03;;;;;;;11.73;10.83;;;28.20;1.00;;;;;;5818804;23;20400;-71
2021/06/04 13:09:33;;;;;;;12.50;11.20;;;28.60;1.00;;;;;;5829820;23;21027;-69
2021/06/04 13:12:02;;;;;;;12.20;11.10;;;28.30;1.00;;;;;;5839978;23;20827;-68
2021/06/04 13:14:40;;;;;;;12.87;11.70;;;27.40;1.00;;;;;;5856475;23;20820;-66
2021/06/04 13:17:23;;;;;;;11.60;10.60;;;27.50;1.00;;;;;;5827438;23;20996;-69
2021/06/04 13:20:06;;;;;;;11.57;10.67;;;28.00;1.00;;;;;;5856136;23;20399;-68